Terminal Aerodrome Forecast
Issued by NWS

Home | Current Version | Previous Version | Text Only | Print | Product List | Glossary On
Versions: 1 2 3 4 5 6 7 8 9 10 11 12 13 14 15 16 17 18 19 20 21 22 23 24 25 26 27 28 29 30 31 32 33 34 35 36 37 38 39 40 41 42 43
000
FTUS45 KCYS 232350
TAFLAR
TAF
KLAR 232350Z 2400/2424 05009KT P6SM SCT050 OVC120
      TEMPO 2400/2403 1 1/2SM -SN OVC012
     FM240300 05012KT 2SM -SN BR BKN025 OVC050
     FM241200 12010KT 1/2SM SN FG OVC010
     FM241800 12007KT P6SM OVC007
     FM242100 11009KT P6SM OVC015=

USA.gov is the U.S. government's official web portal to all federal, state and local government web resources and services.